createdAt,value
2022-10-10T00:01:19.363Z,14.95
2022-10-10T00:03:46.040Z,12.35
2022-10-10T00:06:13.297Z,13.85
2022-10-10T00:08:40.495Z,12.50
2022-10-10T00:11:07.465Z,14.18
2022-10-10T00:13:34.778Z,14.27
2022-10-10T00:16:01.740Z,14.25
2022-10-10T00:18:28.588Z,12.60
2022-10-10T00:20:55.042Z,13.68
2022-10-10T00:23:21.453Z,14.70
2022-10-10T00:25:48.248Z,15.85
2022-10-10T00:28:14.955Z,13.77
2022-10-10T00:30:41.555Z,14.20
2022-10-10T00:33:08.403Z,14.75
2022-10-10T00:35:34.893Z,15.23
2022-10-10T00:38:01.510Z,17.20
2022-10-10T00:40:28.572Z,16.48
2022-10-10T00:42:55.117Z,18.73
2022-10-10T00:45:21.457Z,18.52
2022-10-10T00:47:50.124Z,18.52
2022-10-10T00:50:18.749Z,20.23
2022-10-10T00:52:45.761Z,22.60
2022-10-10T00:55:13.809Z,19.27
2022-10-10T00:57:40.832Z,22.40
2022-10-10T01:00:08.103Z,19.75
2022-10-10T01:02:34.566Z,20.60
2022-10-10T01:05:00.981Z,19.58
2022-10-10T01:07:31.356Z,19.73
2022-10-10T01:10:02.539Z,20.45
2022-10-10T01:12:48.203Z,17.98
2022-10-10T01:15:47.482Z,19.63
2022-10-10T01:18:18.834Z,17.55
2022-10-10T01:20:51.594Z,19.35
2022-10-10T01:23:36.927Z,20.50
2022-10-10T01:26:23.915Z,18.38
2022-10-10T01:29:00.456Z,18.85
2022-10-10T01:31:29.287Z,21.20
2022-10-10T01:34:20.592Z,20.38
2022-10-10T01:37:03.014Z,22.00
2022-10-10T01:39:53.475Z,18.98
2022-10-10T01:42:25.708Z,18.85
2022-10-10T01:44:54.024Z,18.25
2022-10-10T01:47:24.135Z,21.48
2022-10-10T01:49:55.699Z,22.85
2022-10-10T01:52:45.068Z,26.45
2022-10-10T01:55:21.560Z,20.13
2022-10-10T01:57:58.547Z,23.90
2022-10-10T02:00:25.324Z,24.50
2022-10-10T02:03:21.046Z,23.40
2022-10-10T02:05:53.826Z,21.98
2022-10-10T02:08:27.735Z,23.15
2022-10-10T02:11:00.736Z,24.75
2022-10-10T02:13:34.398Z,23.23
2022-10-10T02:16:03.051Z,26.80
2022-10-10T02:18:32.978Z,38.13
2022-10-10T02:21:03.450Z,51.67
2022-10-10T02:23:29.960Z,49.92
2022-10-10T02:25:57.169Z,42.75
2022-10-10T02:28:38.666Z,30.48
2022-10-10T02:31:11.297Z,29.92
2022-10-10T02:34:09.628Z,27.20
2022-10-10T02:36:36.380Z,24.13
2022-10-10T02:39:03.526Z,26.15
2022-10-10T02:41:31.860Z,29.80
2022-10-10T02:44:01.022Z,24.10
2022-10-10T02:46:27.681Z,30.48
2022-10-10T02:48:54.033Z,25.20
2022-10-10T02:51:20.509Z,21.92
2022-10-10T02:53:47.411Z,21.73
2022-10-10T02:56:13.861Z,22.30
2022-10-10T02:58:40.197Z,22.20
2022-10-10T03:01:06.651Z,24.05
2022-10-10T03:03:33.523Z,27.92
2022-10-10T03:05:59.892Z,25.85
2022-10-10T03:08:26.286Z,28.23
2022-10-10T03:11:01.580Z,20.33
2022-10-10T03:13:28.451Z,22.10
2022-10-10T03:15:54.793Z,20.45
2022-10-10T03:18:21.531Z,22.10
2022-10-10T03:20:53.720Z,26.50
2022-10-10T03:23:20.702Z,23.60
2022-10-10T03:25:47.539Z,19.95
2022-10-10T03:28:14.345Z,22.25
2022-10-10T03:30:40.754Z,21.02
2022-10-10T03:33:07.899Z,22.27
2022-10-10T03:35:34.819Z,21.92
2022-10-10T03:38:01.328Z,22.10
2022-10-10T03:40:28.575Z,22.60
2022-10-10T03:42:55.451Z,22.45
2022-10-10T03:45:21.855Z,40.08
2022-10-10T03:47:48.228Z,26.92
2022-10-10T03:50:14.644Z,27.92
2022-10-10T03:52:41.071Z,23.08
2022-10-10T03:55:07.951Z,24.48
2022-10-10T03:57:34.649Z,25.45
2022-10-10T04:00:01.011Z,24.27
2022-10-10T04:02:27.397Z,27.25
2022-10-10T04:04:53.944Z,26.92
2022-10-10T04:07:20.422Z,27.50
2022-10-10T04:09:46.791Z,28.25
2022-10-10T04:12:13.122Z,29.83
2022-10-10T04:14:39.519Z,27.73
2022-10-10T04:17:05.958Z,26.63
2022-10-10T04:19:32.291Z,26.63
2022-10-10T04:21:58.578Z,30.85
2022-10-10T04:24:25.010Z,30.83
2022-10-10T04:26:51.463Z,28.40
2022-10-10T04:29:17.807Z,29.58
2022-10-10T04:31:44.413Z,27.58
2022-10-10T04:34:15.142Z,26.35
2022-10-10T04:36:47.777Z,23.48
2022-10-10T04:39:17.236Z,23.20
2022-10-10T04:41:46.378Z,21.52
2022-10-10T04:44:12.800Z,24.60
2022-10-10T04:46:42.000Z,24.75
2022-10-10T04:49:12.925Z,21.85
2022-10-10T04:51:39.335Z,23.33
2022-10-10T04:54:05.786Z,22.92
2022-10-10T04:56:32.195Z,24.40
2022-10-10T04:58:59.118Z,23.85
2022-10-10T05:01:25.672Z,23.75
2022-10-10T05:03:52.085Z,23.58
2022-10-10T05:06:18.479Z,24.98
2022-10-10T05:08:44.846Z,25.95
2022-10-10T05:11:11.234Z,27.25
2022-10-10T05:13:37.636Z,27.25
2022-10-10T05:16:04.110Z,27.50
2022-10-10T05:18:30.614Z,26.38
2022-10-10T05:21:02.580Z,24.20
2022-10-10T05:23:29.991Z,22.10
2022-10-10T05:25:56.446Z,20.83
2022-10-10T05:28:22.805Z,21.58
2022-10-10T05:30:51.009Z,22.60
2022-10-10T05:33:18.653Z,21.15
2022-10-10T05:35:45.093Z,20.50
2022-10-10T05:38:11.454Z,20.80
2022-10-10T05:40:41.899Z,22.95
2022-10-10T05:43:08.315Z,21.13
2022-10-10T05:45:34.786Z,22.08
2022-10-10T05:48:01.353Z,22.52
2022-10-10T05:50:32.836Z,24.30
2022-10-10T05:52:59.203Z,23.27
2022-10-10T05:55:25.776Z,25.63
2022-10-10T05:57:52.565Z,23.65
2022-10-10T06:00:18.957Z,24.70
2022-10-10T06:02:45.631Z,25.08
2022-10-10T06:05:12.229Z,25.33
2022-10-10T06:07:59.840Z,25.58
2022-10-10T06:10:25.201Z,27.52
2022-10-10T06:12:51.787Z,25.90
2022-10-10T06:15:18.358Z,27.25
2022-10-10T06:17:44.750Z,28.73
2022-10-10T06:20:11.075Z,31.88
2022-10-10T06:22:37.484Z,28.80
2022-10-10T06:25:04.101Z,27.25
2022-10-10T06:27:30.470Z,27.23
2022-10-10T06:29:56.804Z,35.42
2022-10-10T06:32:23.106Z,38.53
2022-10-10T06:34:49.421Z,37.90
2022-10-10T06:37:15.789Z,34.40
2022-10-10T06:39:42.370Z,32.13
2022-10-10T06:42:08.683Z,30.35
2022-10-10T06:44:35.119Z,34.53
2022-10-10T06:47:01.545Z,33.75
2022-10-10T06:49:29.225Z,36.88
2022-10-10T06:51:55.580Z,33.28
2022-10-10T06:54:22.283Z,31.42
2022-10-10T06:56:48.659Z,32.45
2022-10-10T06:59:15.003Z,33.42
2022-10-10T07:01:45.482Z,32.15
2022-10-10T07:04:13.234Z,29.60
2022-10-10T07:06:39.867Z,32.40
2022-10-10T07:09:06.390Z,31.27
2022-10-10T07:11:32.876Z,30.58
2022-10-10T07:13:59.358Z,33.90
2022-10-10T07:16:25.959Z,34.40
2022-10-10T07:18:52.311Z,34.08
2022-10-10T07:21:18.819Z,31.92
2022-10-10T07:23:45.155Z,32.45
2022-10-10T07:26:13.838Z,27.90
2022-10-10T07:28:40.242Z,26.67
2022-10-10T07:31:11.004Z,25.42
2022-10-10T07:33:48.923Z,26.92
2022-10-10T07:36:16.517Z,26.23
2022-10-10T07:38:42.890Z,26.48
2022-10-10T07:41:13.017Z,33.05
2022-10-10T07:43:39.490Z,29.15
2022-10-10T07:46:12.770Z,30.92
2022-10-10T07:48:39.953Z,32.17
2022-10-10T07:51:07.468Z,33.28
2022-10-10T07:53:33.899Z,35.58
2022-10-10T07:56:00.227Z,35.58
2022-10-10T07:58:26.560Z,34.67
2022-10-10T08:01:02.365Z,35.38
2022-10-10T08:03:28.722Z,34.42
2022-10-10T08:05:55.146Z,39.28
2022-10-10T08:08:21.508Z,38.65
2022-10-10T08:10:47.843Z,40.78
2022-10-10T08:13:14.329Z,40.92
2022-10-10T08:15:41.179Z,42.22
2022-10-10T08:18:07.583Z,39.92
2022-10-10T08:20:34.044Z,39.20
2022-10-10T08:23:00.859Z,40.00
2022-10-10T08:25:27.600Z,38.65
2022-10-10T08:27:56.790Z,41.08
2022-10-10T08:30:23.155Z,39.92
2022-10-10T08:32:49.917Z,41.97
2022-10-10T08:35:16.483Z,43.50
2022-10-10T08:37:42.873Z,41.00
2022-10-10T08:40:16.176Z,40.25
2022-10-10T08:42:52.675Z,38.83
2022-10-10T08:45:24.461Z,36.83
2022-10-10T08:48:02.612Z,38.50
2022-10-10T08:50:33.604Z,40.75
2022-10-10T08:53:57.954Z,39.72
2022-10-10T08:56:34.912Z,40.90
2022-10-10T08:59:42.420Z,40.15
2022-10-10T09:07:00.245Z,37.15
2022-10-10T09:10:38.227Z,36.25
2022-10-10T09:21:07.428Z,26.77
2022-10-10T09:27:42.299Z,25.95
2022-10-10T09:34:36.300Z,26.45
2022-10-10T09:37:46.829Z,28.77
2022-10-10T09:54:30.340Z,26.58
2022-10-10T10:04:48.758Z,23.10
2022-10-10T10:07:47.922Z,24.63
2022-10-10T10:10:35.183Z,22.67
2022-10-10T10:13:01.582Z,22.20
2022-10-10T10:15:31.280Z,20.63
2022-10-10T10:18:25.161Z,16.58
2022-10-10T10:21:01.932Z,19.73
2022-10-10T10:26:51.686Z,16.42
2022-10-10T10:30:09.252Z,12.30
2022-10-10T10:32:54.484Z,13.57
2022-10-10T10:50:45.505Z,11.32
2022-10-10T10:57:51.232Z,10.65
2022-10-10T11:01:23.297Z,13.13
2022-10-10T11:15:09.499Z,16.70
2022-10-10T11:17:44.725Z,14.45
2022-10-10T11:20:35.530Z,15.77
2022-10-10T11:23:10.456Z,15.15
2022-10-10T11:33:49.820Z,14.35
2022-10-10T11:47:06.734Z,20.25
2022-10-10T12:00:50.213Z,20.38
2022-10-10T12:03:54.236Z,20.13
2022-10-10T12:10:00.447Z,19.85
2022-10-10T12:12:34.074Z,15.00
2022-10-10T12:15:04.043Z,14.25
2022-10-10T12:17:38.140Z,15.57
2022-10-10T12:20:14.858Z,19.13
2022-10-10T12:23:07.594Z,19.35
2022-10-10T12:25:42.498Z,23.33
2022-10-10T12:28:14.909Z,22.70
2022-10-10T12:30:58.448Z,19.27
2022-10-10T12:33:31.175Z,14.47
2022-10-10T12:35:57.653Z,12.68
2022-10-10T12:38:25.541Z,14.32
2022-10-10T12:40:58.117Z,12.50
2022-10-10T12:43:36.689Z,14.77
2022-10-10T12:46:24.741Z,13.50
2022-10-10T12:49:13.893Z,13.55
2022-10-10T12:51:41.693Z,12.80
2022-10-10T12:54:16.292Z,16.92
2022-10-10T12:56:45.179Z,16.05
2022-10-10T12:59:19.947Z,18.48
2022-10-10T13:01:52.331Z,12.95
2022-10-10T13:04:19.590Z,11.98
2022-10-10T13:06:47.903Z,12.00
2022-10-10T13:09:19.991Z,12.40
2022-10-10T13:11:52.250Z,11.20
2022-10-10T13:14:18.677Z,14.68
2022-10-10T13:16:45.648Z,10.95
2022-10-10T13:19:19.955Z,10.98
2022-10-10T13:24:17.703Z,14.35
2022-10-10T13:26:49.258Z,13.93
2022-10-10T13:29:18.399Z,12.10
2022-10-10T13:31:45.355Z,13.93
2022-10-10T13:34:17.253Z,15.23
2022-10-10T13:36:44.899Z,18.40
2022-10-10T13:39:16.596Z,17.25
2022-10-10T13:42:21.124Z,18.38
2022-10-10T13:44:51.030Z,19.37
2022-10-10T13:47:55.061Z,17.92
2022-10-10T13:50:24.670Z,15.85
2022-10-10T13:53:13.899Z,16.10
2022-10-10T13:55:41.321Z,17.17
2022-10-10T13:58:14.027Z,17.20
2022-10-10T14:00:41.188Z,14.02
2022-10-10T14:03:19.526Z,15.70
2022-10-10T14:05:46.717Z,15.30
2022-10-10T14:08:20.277Z,16.27
2022-10-10T14:11:06.430Z,17.60
2022-10-10T14:13:37.156Z,15.55
2022-10-10T14:16:12.815Z,16.98
2022-10-10T14:18:39.386Z,17.70
2022-10-10T14:21:06.599Z,16.92
2022-10-10T14:23:33.037Z,18.10
2022-10-10T14:25:59.665Z,14.38
2022-10-10T14:28:34.837Z,13.57
2022-10-10T14:35:36.604Z,12.73
2022-10-10T14:39:03.789Z,12.20
2022-10-10T14:41:30.212Z,10.80
2022-10-10T14:43:56.689Z,13.73
2022-10-10T14:46:23.087Z,14.07
2022-10-10T14:48:49.882Z,11.95
2022-10-10T14:51:40.538Z,12.68
2022-10-10T15:01:09.649Z,14.32
2022-10-10T15:03:36.107Z,14.23
2022-10-10T15:06:02.518Z,14.85
2022-10-10T15:08:28.940Z,15.45
2022-10-10T15:10:57.456Z,13.90
2022-10-10T15:13:23.967Z,15.65
2022-10-10T15:15:50.355Z,14.90
2022-10-10T15:18:49.178Z,15.52
2022-10-10T15:21:08.804Z,17.85
2022-10-10T15:23:35.196Z,16.40
2022-10-10T15:26:01.530Z,16.27
2022-10-10T15:28:28.111Z,15.52
2022-10-10T15:30:56.045Z,16.60
2022-10-10T15:33:23.143Z,17.38
2022-10-10T15:36:19.144Z,18.30
2022-10-10T15:38:53.027Z,19.48
2022-10-10T15:41:20.923Z,21.42
2022-10-10T15:43:52.090Z,18.70
2022-10-10T15:46:20.350Z,17.35
2022-10-10T15:48:47.720Z,18.92
2022-10-10T15:51:17.572Z,19.63
2022-10-10T15:53:46.216Z,18.20
2022-10-10T15:56:15.852Z,16.63
2022-10-10T15:58:42.881Z,18.55
2022-10-10T16:01:20.134Z,20.23
2022-10-10T16:03:50.559Z,24.67
2022-10-10T16:06:19.157Z,23.02
2022-10-10T16:08:55.671Z,24.45
2022-10-10T16:11:26.096Z,21.58
2022-10-10T16:13:57.811Z,26.30
2022-10-10T16:16:27.386Z,27.63
2022-10-10T16:18:53.806Z,29.92
2022-10-10T16:21:23.352Z,34.05
2022-10-10T16:23:54.296Z,34.38
2022-10-10T16:26:29.079Z,34.20
2022-10-10T16:28:56.439Z,31.20
2022-10-10T16:31:24.936Z,31.55
2022-10-10T16:33:51.525Z,29.83
2022-10-10T16:36:23.783Z,28.73
2022-10-10T16:38:51.084Z,28.23
2022-10-10T16:41:35.643Z,31.30
2022-10-10T16:44:04.883Z,33.85
2022-10-10T16:46:31.195Z,33.97
2022-10-10T16:48:59.431Z,38.58
2022-10-10T16:51:28.346Z,36.35
2022-10-10T16:53:55.297Z,37.10
2022-10-10T16:56:22.409Z,35.45
2022-10-10T16:58:51.072Z,37.63
2022-10-10T17:01:21.109Z,37.85
2022-10-10T17:03:51.617Z,34.38
2022-10-10T17:06:21.424Z,32.67
2022-10-10T17:08:49.881Z,32.72
2022-10-10T17:11:17.894Z,33.30
2022-10-10T17:13:44.797Z,34.92
2022-10-10T17:16:53.594Z,36.60
2022-10-10T17:19:05.980Z,37.72
2022-10-10T17:21:33.013Z,34.25
2022-10-10T17:23:59.399Z,33.17
2022-10-10T17:26:28.323Z,32.63
2022-10-10T17:28:56.610Z,32.63
2022-10-10T17:31:23.843Z,32.25
2022-10-10T17:33:53.915Z,31.92
2022-10-10T17:36:24.300Z,33.17
2022-10-10T17:38:51.779Z,33.80
2022-10-10T17:41:19.994Z,32.70
2022-10-10T17:43:46.683Z,34.65
2022-10-10T17:46:41.502Z,31.90
2022-10-10T17:49:10.282Z,30.67
2022-10-10T17:51:39.427Z,31.30
2022-10-10T17:54:09.350Z,33.83
2022-10-10T17:56:37.573Z,30.42
2022-10-10T17:59:06.456Z,33.05
2022-10-10T18:01:34.731Z,31.00
2022-10-10T18:04:01.941Z,32.97
2022-10-10T18:06:29.275Z,33.70
2022-10-10T18:08:56.430Z,31.80
2022-10-10T18:11:25.712Z,32.20
2022-10-10T18:13:52.903Z,33.40
2022-10-10T18:16:23.104Z,35.33
2022-10-10T18:18:51.897Z,31.55
2022-10-10T18:21:20.570Z,26.35
2022-10-10T18:23:47.727Z,28.20
2022-10-10T18:26:19.723Z,27.02
2022-10-10T18:28:46.382Z,26.45
2022-10-10T18:31:16.124Z,25.90
2022-10-10T18:33:44.709Z,24.10
2022-10-10T18:36:13.599Z,25.40
2022-10-10T18:38:40.223Z,23.95
2022-10-10T18:41:09.194Z,24.52
2022-10-10T18:43:36.897Z,24.73
2022-10-10T18:46:05.672Z,27.13
2022-10-10T18:48:32.284Z,27.73
2022-10-10T18:51:02.156Z,25.40
2022-10-10T18:53:29.341Z,25.85
2022-10-10T18:55:57.957Z,25.48
2022-10-10T18:58:24.406Z,25.52
2022-10-10T19:00:50.951Z,25.35
2022-10-10T19:03:23.785Z,25.58
2022-10-10T19:05:56.600Z,25.98
2022-10-10T19:08:28.343Z,25.42
2022-10-10T19:10:54.775Z,24.35
2022-10-10T19:13:21.150Z,24.45
2022-10-10T19:15:49.843Z,25.75
2022-10-10T19:18:16.553Z,23.73
2022-10-10T19:20:43.069Z,27.13
2022-10-10T19:23:09.721Z,24.85
2022-10-10T19:25:39.887Z,25.83
2022-10-10T19:28:07.175Z,25.60
2022-10-10T19:30:38.408Z,23.63
2022-10-10T19:33:05.136Z,25.45
2022-10-10T19:35:39.602Z,22.77
2022-10-10T19:40:33.588Z,23.15
2022-10-10T19:43:00.181Z,24.10
2022-10-10T19:45:26.649Z,21.17
2022-10-10T19:47:53.471Z,23.38
2022-10-10T19:50:20.063Z,24.95
2022-10-10T20:06:44.994Z,24.17
2022-10-10T20:09:11.815Z,27.25
2022-10-10T20:11:39.139Z,26.33
2022-10-10T20:14:05.759Z,24.80
2022-10-10T20:16:32.262Z,23.48
2022-10-10T20:18:59.158Z,24.83
2022-10-10T20:21:29.870Z,26.05
2022-10-10T20:27:03.188Z,26.08
2022-10-10T20:29:29.811Z,24.48
2022-10-10T20:31:56.175Z,23.17
2022-10-10T20:34:22.554Z,24.38
2022-10-10T20:36:48.939Z,25.38
2022-10-10T20:39:15.357Z,24.50
2022-10-10T20:41:42.870Z,23.08
2022-10-10T20:44:12.510Z,23.92
2022-10-10T20:46:40.779Z,26.08
2022-10-10T20:49:12.795Z,24.60
2022-10-10T20:51:39.121Z,25.10
2022-10-10T20:54:07.354Z,26.27
2022-10-10T20:56:35.422Z,28.67
2022-10-10T20:59:02.146Z,26.42
2022-10-10T21:01:30.203Z,27.38
2022-10-10T21:03:57.033Z,28.23
2022-10-10T21:06:26.618Z,29.42
2022-10-10T21:08:54.038Z,25.48
2022-10-10T21:11:22.128Z,29.50
2022-10-10T21:13:55.934Z,30.05
2022-10-10T21:16:30.392Z,26.70
2022-10-10T21:18:58.666Z,27.92
2022-10-10T21:21:28.141Z,27.20
2022-10-10T21:23:56.577Z,24.27
2022-10-10T21:26:24.840Z,23.15
2022-10-10T21:28:51.948Z,23.85
2022-10-10T21:31:22.570Z,25.23
2022-10-10T21:33:49.307Z,24.70
2022-10-10T21:36:17.455Z,26.25
2022-10-10T21:38:44.434Z,26.45
2022-10-10T21:41:18.840Z,26.90
2022-10-10T21:46:15.157Z,26.20
2022-10-10T21:48:41.870Z,25.58
2022-10-10T21:51:08.253Z,26.92
2022-10-10T21:53:34.739Z,26.42
2022-10-10T21:56:06.045Z,26.00
2022-10-10T21:58:38.134Z,26.08
2022-10-10T22:01:14.845Z,24.80
2022-10-10T22:03:42.803Z,25.02
2022-10-10T22:06:14.417Z,25.05
2022-10-10T22:08:44.234Z,26.65
2022-10-10T22:11:13.907Z,25.83
2022-10-10T22:13:40.792Z,26.08
2022-10-10T22:16:08.352Z,24.77
2022-10-10T22:18:36.083Z,24.23
2022-10-10T22:21:04.977Z,25.63
2022-10-10T22:23:31.311Z,24.05
2022-10-10T22:25:58.127Z,23.83
2022-10-10T22:28:25.702Z,24.02
2022-10-10T22:30:52.058Z,22.60
2022-10-10T22:33:18.451Z,21.40
2022-10-10T22:35:45.443Z,20.02
2022-10-10T22:38:11.819Z,21.17
2022-10-10T22:40:38.229Z,21.15
2022-10-10T22:43:04.708Z,21.58
2022-10-10T22:45:31.062Z,21.98
2022-10-10T22:47:57.389Z,22.13
2022-10-10T22:50:23.767Z,21.75
2022-10-10T22:52:50.416Z,20.00
2022-10-10T22:55:18.714Z,23.00
2022-10-10T22:57:45.917Z,20.17
2022-10-10T23:00:12.870Z,23.00
2022-10-10T23:02:39.181Z,22.25
2022-10-10T23:05:06.173Z,20.60
2022-10-10T23:07:32.716Z,21.45
2022-10-10T23:09:59.095Z,20.48
2022-10-10T23:12:25.409Z,19.50
2022-10-10T23:14:51.745Z,20.77
2022-10-10T23:17:18.141Z,20.73
2022-10-10T23:19:44.502Z,20.67
2022-10-10T23:22:12.685Z,21.25
2022-10-10T23:24:39.979Z,23.67
2022-10-10T23:27:06.366Z,22.40
2022-10-10T23:29:33.097Z,24.67
2022-10-10T23:31:59.567Z,22.27
2022-10-10T23:34:25.920Z,21.25
2022-10-10T23:36:52.259Z,20.65
2022-10-10T23:39:18.695Z,21.23
2022-10-10T23:41:45.058Z,20.45
2022-10-10T23:44:11.405Z,21.92
2022-10-10T23:46:37.748Z,20.08
2022-10-10T23:49:04.108Z,21.05
2022-10-10T23:51:30.563Z,20.52
2022-10-10T23:53:57.052Z,22.48
2022-10-10T23:56:23.440Z,20.42
2022-10-10T23:58:49.987Z,21.45
